Time;durP1;ratioP1;P1;durP2;ratioP2;P2;SDS_P1;SDS_P2;PMS_P1;PMS_P2;Temp;Humidity;BMP_temperature;BMP_pressure;BME280_temperature;BME280_humidity;BME280_pressure;Samples;Min_cycle;Max_cycle;Signal;HPM_P1;HPM_P2
2022/05/24 00:02:12;;;;;;;5.43;3.15;;;;;;;;;;5032556;28;20571;-55
2022/05/24 00:04:38;;;;;;;5.67;3.53;;;;;;;;;;5033685;28;20385;-55
2022/05/24 00:07:04;;;;;;;3.67;2.78;;;;;;;;;;5034879;28;20707;-56
2022/05/24 00:09:30;;;;;;;3.25;2.85;;;;;;;;;;5033667;28;20801;-55
2022/05/24 00:11:56;;;;;;;5.68;3.03;;;;;;;;;;5032204;28;20468;-56
2022/05/24 00:17:07;;;;;;;5.57;3.25;;;;;;;;;;5050741;28;20681;-53
2022/05/24 00:19:34;;;;;;;5.30;3.15;;;;;;;;;;5051092;28;20396;-56
2022/05/24 00:22:00;;;;;;;5.75;3.20;;;;;;;;;;5048448;28;20643;-51
2022/05/24 00:24:26;;;;;;;5.20;3.20;;;;;;;;;;5033694;28;20773;-56
2022/05/24 00:26:52;;;;;;;4.75;3.20;;;;;;;;;;5036021;28;20415;-54
2022/05/24 00:29:18;;;;;;;4.82;3.17;;;;;;;;;;5035379;28;20478;-57
2022/05/24 00:31:44;;;;;;;5.68;3.10;;;;;;;;;;5034806;28;20394;-55
2022/05/24 00:34:10;;;;;;;5.32;3.15;;;;;;;;;;5049205;28;20444;-56
2022/05/24 00:36:36;;;;;;;5.23;3.33;;;;;;;;;;5052126;28;20518;-56
2022/05/24 00:39:02;;;;;;;6.27;3.43;;;;;;;;;;5053814;28;20460;-54
2022/05/24 00:41:33;;;;;;;5.93;3.38;;;;;;;;;;5035887;28;20381;-56
2022/05/24 00:44:03;;;;;;;5.38;3.40;;;;;;;;;;5033701;28;20460;-57
2022/05/24 00:46:50;;;;;;;5.55;3.75;;;;;;;;;;5033132;28;20391;-56
2022/05/24 00:49:31;;;;;;;4.97;3.47;;;;;;;;;;5020225;28;20386;-53
2022/05/24 00:52:03;;;;;;;6.50;3.40;;;;;;;;;;5049711;28;20393;-56
2022/05/24 00:54:29;;;;;;;6.70;3.58;;;;;;;;;;5051390;28;20470;-53
2022/05/24 00:57:11;;;;;;;4.72;3.67;;;;;;;;;;5031845;28;20855;-57
2022/05/24 00:59:39;;;;;;;6.43;4.15;;;;;;;;;;5033499;28;20536;-57
2022/05/24 01:02:05;;;;;;;5.45;3.97;;;;;;;;;;5033381;28;20381;-53
2022/05/24 01:04:32;;;;;;;5.03;3.85;;;;;;;;;;5051108;28;20377;-54
2022/05/24 01:06:57;;;;;;;7.50;4.25;;;;;;;;;;5051605;28;20400;-52
2022/05/24 01:09:46;;;;;;;7.22;4.15;;;;;;;;;;5033967;28;20488;-55
2022/05/24 01:12:16;;;;;;;5.03;4.00;;;;;;;;;;5032852;28;20401;-55
2022/05/24 01:14:42;;;;;;;6.00;4.00;;;;;;;;;;5050489;28;20623;-54
2022/05/24 01:17:08;;;;;;;5.22;4.00;;;;;;;;;;5031274;28;20471;-57
2022/05/24 01:19:34;;;;;;;5.22;4.28;;;;;;;;;;5031777;28;20477;-52
2022/05/24 01:22:08;;;;;;;10.13;4.88;;;;;;;;;;5032439;28;20789;-52
2022/05/24 01:24:39;;;;;;;6.15;4.30;;;;;;;;;;5032101;28;20469;-54
2022/05/24 01:27:06;;;;;;;5.88;4.30;;;;;;;;;;5031915;28;20496;-56
2022/05/24 01:29:32;;;;;;;7.38;4.57;;;;;;;;;;5031895;28;20541;-57
2022/05/24 01:37:29;;;;;;;8.02;4.55;;;;;;;;;;5051077;28;20405;-53
2022/05/24 01:39:56;;;;;;;8.40;5.50;;;;;;;;;;5035912;28;20392;-53
2022/05/24 01:42:23;;;;;;;7.00;5.30;;;;;;;;;;5038791;28;20413;-57
2022/05/24 01:45:10;;;;;;;5.93;5.25;;;;;;;;;;5057399;28;20378;-57
2022/05/24 01:47:37;;;;;;;7.20;5.60;;;;;;;;;;5036649;28;20452;-57
2022/05/24 01:50:05;;;;;;;8.02;5.90;;;;;;;;;;5037429;28;20685;-56
2022/05/24 01:52:36;;;;;;;6.90;6.20;;;;;;;;;;5055256;28;20461;-56
2022/05/24 01:55:08;;;;;;;8.63;6.25;;;;;;;;;;5038525;28;20447;-54
2022/05/24 01:57:36;;;;;;;5.95;5.32;;;;;;;;;;5037923;28;20452;-53
2022/05/24 02:00:06;;;;;;;4.38;3.97;;;;;;;;;;5038019;28;20409;-57
2022/05/24 02:02:32;;;;;;;4.55;3.45;;;;;;;;;;5055605;28;20435;-53
2022/05/24 02:04:58;;;;;;;3.23;3.00;;;;;;;;;;5037036;28;20431;-57
2022/05/24 02:07:25;;;;;;;3.17;2.87;;;;;;;;;;5038571;28;20705;-55
2022/05/24 02:09:54;;;;;;;2.47;2.27;;;;;;;;;;5037287;28;21506;-56
2022/05/24 02:12:34;;;;;;;4.70;2.40;;;;;;;;;;5036306;28;20398;-56
2022/05/24 02:15:08;;;;;;;3.38;2.10;;;;;;;;;;5037224;28;20397;-56
2022/05/24 02:17:40;;;;;;;2.78;2.35;;;;;;;;;;5037860;28;20499;-55
2022/05/24 02:20:09;;;;;;;3.55;2.55;;;;;;;;;;5037423;28;20416;-56
2022/05/24 02:22:36;;;;;;;6.80;2.90;;;;;;;;;;5038515;28;20468;-53
2022/05/24 02:25:15;;;;;;;5.20;2.70;;;;;;;;;;5037346;28;20434;-54
2022/05/24 02:27:45;;;;;;;3.78;2.50;;;;;;;;;;5039217;28;20386;-55
2022/05/24 02:30:13;;;;;;;3.73;2.60;;;;;;;;;;5037534;28;20385;-54
2022/05/24 02:32:39;;;;;;;4.30;2.70;;;;;;;;;;5054568;28;20681;-57
2022/05/24 02:35:05;;;;;;;3.47;2.80;;;;;;;;;;5036135;28;20417;-53
2022/05/24 02:37:31;;;;;;;3.90;3.30;;;;;;;;;;5037489;28;20459;-53
2022/05/24 02:42:41;;;;;;;5.35;3.70;;;;;;;;;;5055226;28;20396;-54
2022/05/24 02:45:08;;;;;;;5.65;4.68;;;;;;;;;;5037053;28;20723;-60
2022/05/24 02:47:33;;;;;;;9.57;5.40;;;;;;;;;;5036483;28;20385;-56
2022/05/24 02:49:59;;;;;;;6.85;6.13;;;;;;;;;;5036754;28;20465;-57
2022/05/24 02:52:25;;;;;;;9.27;6.50;;;;;;;;;;5034775;28;20446;-57
2022/05/24 02:54:52;;;;;;;8.60;6.10;;;;;;;;;;5036086;28;20793;-57
2022/05/24 02:57:18;;;;;;;7.15;6.43;;;;;;;;;;5037907;28;20500;-55
2022/05/24 02:59:44;;;;;;;6.90;6.20;;;;;;;;;;5037669;28;20511;-56
2022/05/24 03:02:10;;;;;;;8.18;6.60;;;;;;;;;;5037308;28;20481;-55
2022/05/24 03:04:36;;;;;;;8.20;6.70;;;;;;;;;;5053034;28;20515;-56
2022/05/24 03:09:47;;;;;;;9.57;7.97;;;;;;;;;;5054232;28;20373;-56
2022/05/24 03:14:57;;;;;;;10.70;9.02;;;;;;;;;;5052771;28;20369;-52
2022/05/24 03:17:24;;;;;;;10.52;8.85;;;;;;;;;;5052227;28;20409;-54
2022/05/24 03:19:51;;;;;;;9.60;8.20;;;;;;;;;;5033134;28;20777;-52
2022/05/24 03:22:18;;;;;;;12.25;8.57;;;;;;;;;;5033458;28;20447;-52
2022/05/24 03:24:44;;;;;;;8.48;7.55;;;;;;;;;;5033939;28;20698;-55
2022/05/24 03:27:13;;;;;;;9.35;7.80;;;;;;;;;;5034111;28;20417;-53
2022/05/24 03:29:40;;;;;;;7.97;7.13;;;;;;;;;;5033371;28;20867;-55
2022/05/24 03:32:06;;;;;;;10.07;7.65;;;;;;;;;;5033936;28;20389;-55
2022/05/24 03:34:34;;;;;;;8.70;7.65;;;;;;;;;;5033991;28;20822;-53
2022/05/24 03:37:00;;;;;;;8.02;7.22;;;;;;;;;;5050971;28;20452;-55
2022/05/24 03:39:26;;;;;;;8.30;7.50;;;;;;;;;;5035266;28;20416;-54
2022/05/24 03:41:52;;;;;;;9.10;7.30;;;;;;;;;;5035090;28;20472;-56
2022/05/24 03:44:18;;;;;;;11.07;7.80;;;;;;;;;;5034563;28;20392;-51
2022/05/24 03:46:44;;;;;;;8.40;7.60;;;;;;;;;;5034901;28;20415;-52
2022/05/24 03:49:10;;;;;;;8.27;7.47;;;;;;;;;;5034989;28;20535;-53
2022/05/24 03:51:36;;;;;;;8.15;7.38;;;;;;;;;;5034697;28;20470;-56
2022/05/24 03:54:02;;;;;;;8.85;7.43;;;;;;;;;;5051219;28;20696;-55
2022/05/24 03:56:29;;;;;;;8.20;6.82;;;;;;;;;;5034204;28;20405;-54
2022/05/24 03:58:55;;;;;;;8.23;7.03;;;;;;;;;;5032644;28;20696;-52
2022/05/24 04:01:21;;;;;;;9.05;6.68;;;;;;;;;;5050313;28;20738;-57
2022/05/24 04:03:47;;;;;;;7.03;5.80;;;;;;;;;;5033664;28;20887;-57
2022/05/24 04:06:14;;;;;;;7.03;6.20;;;;;;;;;;5033127;28;20415;-57
2022/05/24 04:08:41;;;;;;;7.13;6.13;;;;;;;;;;5051315;28;20667;-51
2022/05/24 04:11:07;;;;;;;6.03;5.32;;;;;;;;;;5033418;28;20382;-55
2022/05/24 04:13:34;;;;;;;7.73;5.53;;;;;;;;;;5035126;28;20898;-51
2022/05/24 04:16:00;;;;;;;6.35;5.30;;;;;;;;;;5035584;28;20669;-55
2022/05/24 04:18:26;;;;;;;6.75;5.35;;;;;;;;;;5050846;28;20468;-54
2022/05/24 04:20:52;;;;;;;7.57;5.43;;;;;;;;;;5032713;28;20734;-50
2022/05/24 04:23:19;;;;;;;6.17;4.60;;;;;;;;;;5034281;28;20381;-52
2022/05/24 04:25:45;;;;;;;8.17;4.70;;;;;;;;;;5033177;28;20381;-54
2022/05/24 04:28:12;;;;;;;4.80;4.15;;;;;;;;;;5031804;28;20415;-57
2022/05/24 04:30:38;;;;;;;4.95;4.38;;;;;;;;;;5029152;28;20385;-57
2022/05/24 04:33:04;;;;;;;5.57;4.87;;;;;;;;;;5028795;28;20454;-52
2022/05/24 04:35:30;;;;;;;5.40;4.20;;;;;;;;;;5045369;28;20397;-56
2022/05/24 04:37:56;;;;;;;6.80;4.13;;;;;;;;;;5027523;28;20396;-54
2022/05/24 04:42:18;;;;;;;7.95;4.53;;;;;;;;;;5029587;28;20377;-57
2022/05/24 04:43:08;;;;;;;5.30;3.60;;;;;;;;;;5044989;28;20541;-57
2022/05/24 04:45:34;;;;;;;5.50;4.20;;;;;;;;;;5026488;28;20377;-54
2022/05/24 04:48:00;;;;;;;6.05;4.00;;;;;;;;;;5026349;28;20630;-55
2022/05/24 04:50:27;;;;;;;5.40;3.55;;;;;;;;;;5025130;28;20450;-55
2022/05/24 04:52:53;;;;;;;5.70;3.40;;;;;;;;;;5027252;28;20795;-57
2022/05/24 04:55:19;;;;;;;6.05;3.95;;;;;;;;;;5028153;28;20801;-56
2022/05/24 04:57:45;;;;;;;5.18;3.60;;;;;;;;;;5028142;28;20386;-57
2022/05/24 05:00:15;;;;;;;5.72;3.80;;;;;;;;;;5045843;28;20409;-57
2022/05/24 05:02:41;;;;;;;4.32;3.40;;;;;;;;;;5045679;28;20434;-57
2022/05/24 05:05:08;;;;;;;4.40;3.20;;;;;;;;;;5046758;28;21023;-57
2022/05/24 05:07:34;;;;;;;5.50;3.20;;;;;;;;;;5029591;28;20393;-57
2022/05/24 05:10:00;;;;;;;3.75;3.13;;;;;;;;;;5047564;28;20549;-56
2022/05/24 05:12:26;;;;;;;7.00;3.40;;;;;;;;;;5012438;28;20413;-57
2022/05/24 05:14:53;;;;;;;5.25;3.17;;;;;;;;;;5028517;28;20455;-57
2022/05/24 05:17:19;;;;;;;4.25;3.13;;;;;;;;;;5027687;28;20501;-56
2022/05/24 05:19:45;;;;;;;5.53;2.95;;;;;;;;;;5028129;28;20642;-54
2022/05/24 05:22:12;;;;;;;4.60;2.95;;;;;;;;;;5046396;28;20799;-54
2022/05/24 05:24:37;;;;;;;6.25;2.97;;;;;;;;;;5027566;28;20447;-56
2022/05/24 05:27:04;;;;;;;4.70;3.30;;;;;;;;;;5028085;28;20534;-57
2022/05/24 05:32:23;;;;;;;4.32;3.38;;;;;;;;;;5046231;28;20680;-53
2022/05/24 05:34:49;;;;;;;5.32;3.63;;;;;;;;;;5046621;28;20429;-55
2022/05/24 05:37:15;;;;;;;3.80;3.17;;;;;;;;;;5030686;28;20781;-53
2022/05/24 05:39:41;;;;;;;5.05;3.30;;;;;;;;;;5031637;28;20392;-57
2022/05/24 05:42:07;;;;;;;4.90;3.72;;;;;;;;;;5030627;28;20382;-56
2022/05/24 05:44:33;;;;;;;5.47;3.65;;;;;;;;;;5028637;28;20382;-55
2022/05/24 05:46:59;;;;;;;4.65;3.15;;;;;;;;;;5028675;28;20476;-54
2022/05/24 05:49:25;;;;;;;4.70;3.63;;;;;;;;;;5028964;28;20476;-56
2022/05/24 05:51:51;;;;;;;6.57;3.60;;;;;;;;;;5027313;28;20618;-56
2022/05/24 05:54:17;;;;;;;5.53;3.30;;;;;;;;;;5025981;28;20711;-54
2022/05/24 05:56:43;;;;;;;5.80;3.70;;;;;;;;;;5026236;28;20405;-57
2022/05/24 05:59:09;;;;;;;5.38;3.60;;;;;;;;;;5026115;28;20413;-58
2022/05/24 06:01:35;;;;;;;6.63;4.00;;;;;;;;;;5024974;28;20736;-57
2022/05/24 06:04:01;;;;;;;10.52;3.92;;;;;;;;;;5024498;28;20377;-58
2022/05/24 06:06:29;;;;;;;6.72;3.50;;;;;;;;;;5025471;28;20412;-57
2022/05/24 06:08:55;;;;;;;8.50;3.65;;;;;;;;;;5023707;28;20386;-57
2022/05/24 06:11:23;;;;;;;5.93;3.67;;;;;;;;;;5020819;28;20688;-53
2022/05/24 06:13:49;;;;;;;5.93;3.50;;;;;;;;;;5023484;28;20374;-54
2022/05/24 06:16:16;;;;;;;3.85;3.33;;;;;;;;;;5023908;28;20416;-57
2022/05/24 06:18:42;;;;;;;5.20;3.50;;;;;;;;;;5025689;28;20505;-56
2022/05/24 06:21:08;;;;;;;5.45;3.42;;;;;;;;;;5026152;28;20401;-55
2022/05/24 06:23:34;;;;;;;5.47;3.47;;;;;;;;;;5044657;28;20388;-55
2022/05/24 06:26:00;;;;;;;5.85;3.70;;;;;;;;;;5010914;28;20378;-56
2022/05/24 06:28:26;;;;;;;8.00;3.65;;;;;;;;;;5030109;28;20668;-54
2022/05/24 06:30:52;;;;;;;5.28;3.63;;;;;;;;;;5047592;28;20378;-57
2022/05/24 06:33:18;;;;;;;6.13;4.10;;;;;;;;;;5031177;28;20393;-57
2022/05/24 06:35:45;;;;;;;7.82;4.20;;;;;;;;;;5029897;28;20914;-56
2022/05/24 06:38:11;;;;;;;6.15;4.40;;;;;;;;;;5026648;28;20611;-55
2022/05/24 06:40:37;;;;;;;5.73;4.40;;;;;;;;;;5024970;28;20410;-57
2022/05/24 06:43:03;;;;;;;4.80;4.33;;;;;;;;;;5028789;28;20600;-56
2022/05/24 06:45:30;;;;;;;6.32;4.18;;;;;;;;;;5026264;28;20542;-55
2022/05/24 06:47:56;;;;;;;5.90;4.43;;;;;;;;;;5025139;28;20385;-56
2022/05/24 06:50:22;;;;;;;5.93;4.63;;;;;;;;;;5025429;28;20389;-56
2022/05/24 06:52:47;;;;;;;7.15;4.57;;;;;;;;;;5026396;28;20700;-58
2022/05/24 06:55:13;;;;;;;6.07;4.73;;;;;;;;;;5027999;28;20397;-54
2022/05/24 06:57:39;;;;;;;5.93;4.80;;;;;;;;;;5044703;28;20408;-57
2022/05/24 07:03:04;;;;;;;6.22;4.72;;;;;;;;;;5022802;28;20375;-54
2022/05/24 07:05:30;;;;;;;4.95;4.30;;;;;;;;;;5020974;28;20740;-54
2022/05/24 07:07:58;;;;;;;5.77;4.97;;;;;;;;;;5020398;28;20387;-57
2022/05/24 07:10:24;;;;;;;6.33;5.30;;;;;;;;;;5023327;28;20494;-56
2022/05/24 07:13:01;;;;;;;6.17;4.33;;;;;;;;;;5023859;28;20470;-54
2022/05/24 07:15:27;;;;;;;5.57;4.97;;;;;;;;;;5022052;28;20387;-55
2022/05/24 07:17:53;;;;;;;6.18;5.00;;;;;;;;;;5021994;28;20771;-57
2022/05/24 07:20:19;;;;;;;6.13;5.20;;;;;;;;;;5020455;28;20497;-56
2022/05/24 07:22:48;;;;;;;6.38;4.90;;;;;;;;;;5020534;28;20475;-56
2022/05/24 07:25:13;;;;;;;8.02;6.28;;;;;;;;;;5020692;28;20382;-55
2022/05/24 07:27:39;;;;;;;8.63;7.03;;;;;;;;;;5022637;28;20391;-55
2022/05/24 07:30:06;;;;;;;8.70;7.60;;;;;;;;;;5022506;28;20383;-57
2022/05/24 07:32:32;;;;;;;7.65;6.88;;;;;;;;;;5023818;28;20484;-57
2022/05/24 07:34:59;;;;;;;7.68;6.65;;;;;;;;;;5024731;28;20435;-56
2022/05/24 07:37:25;;;;;;;8.98;7.32;;;;;;;;;;5025878;28;20719;-57
2022/05/24 07:45:47;;;;;;;8.45;6.85;;;;;;;;;;5027334;28;20398;-57
2022/05/24 07:48:11;;;;;;;7.20;6.20;;;;;;;;;;5021402;28;20790;-56
2022/05/24 07:50:37;;;;;;;8.95;6.82;;;;;;;;;;5019098;28;20521;-55
2022/05/24 07:53:03;;;;;;;8.67;7.73;;;;;;;;;;5018657;28;20495;-53
2022/05/24 07:55:29;;;;;;;8.73;7.83;;;;;;;;;;5018904;28;20410;-56
2022/05/24 07:57:55;;;;;;;8.73;7.73;;;;;;;;;;5022149;28;20427;-55
2022/05/24 08:00:21;;;;;;;9.97;8.13;;;;;;;;;;5027936;28;20424;-57
2022/05/24 08:02:51;;;;;;;11.03;9.93;;;;;;;;;;5043785;28;20389;-56
2022/05/24 08:05:17;;;;;;;12.57;10.35;;;;;;;;;;5025499;28;20458;-57
2022/05/24 08:07:45;;;;;;;10.13;9.02;;;;;;;;;;5043561;28;20785;-55
2022/05/24 08:10:11;;;;;;;10.43;8.87;;;;;;;;;;5024987;28;20779;-56
2022/05/24 08:12:37;;;;;;;10.80;8.83;;;;;;;;;;5044055;28;20756;-56
2022/05/24 08:15:03;;;;;;;12.00;9.35;;;;;;;;;;5025410;28;20390;-57
2022/05/24 08:17:30;;;;;;;10.40;8.82;;;;;;;;;;5041588;28;20739;-53
2022/05/24 08:19:55;;;;;;;10.32;8.40;;;;;;;;;;5021402;28;20397;-52
2022/05/24 08:22:21;;;;;;;10.73;8.10;;;;;;;;;;5019264;28;20670;-52
2022/05/24 08:24:47;;;;;;;11.77;8.68;;;;;;;;;;5022880;28;20400;-55
2022/05/24 08:27:14;;;;;;;9.30;7.88;;;;;;;;;;5025964;28;20417;-55
2022/05/24 08:29:40;;;;;;;9.90;8.80;;;;;;;;;;5024858;28;20490;-56
2022/05/24 08:32:07;;;;;;;9.05;8.13;;;;;;;;;;5023085;28;20720;-56
2022/05/24 08:34:33;;;;;;;10.20;8.45;;;;;;;;;;5024046;28;20451;-57
2022/05/24 08:36:59;;;;;;;11.07;8.50;;;;;;;;;;5024295;28;20486;-55
2022/05/24 08:39:25;;;;;;;9.40;7.78;;;;;;;;;;5024254;28;20386;-55
2022/05/24 08:42:04;;;;;;;9.20;7.97;;;;;;;;;;5025720;28;20383;-54
2022/05/24 08:50:08;;;;;;;9.00;6.80;;;;;;;;;;5039960;28;20395;-55
2022/05/24 08:52:35;;;;;;;8.98;7.63;;;;;;;;;;5040546;28;20415;-55
2022/05/24 08:55:02;;;;;;;8.80;7.90;;;;;;;;;;5024410;28;20495;-57
2022/05/24 08:57:42;;;;;;;9.23;7.18;;;;;;;;;;5024694;28;20475;-55
2022/05/24 09:00:14;;;;;;;7.10;6.40;;;;;;;;;;5026117;28;20424;-54
2022/05/24 09:02:43;;;;;;;7.53;6.43;;;;;;;;;;5024943;28;20859;-54
2022/05/24 09:05:30;;;;;;;9.13;7.50;;;;;;;;;;5024373;28;20393;-57
2022/05/24 09:08:15;;;;;;;8.93;7.43;;;;;;;;;;5048008;28;20381;-57
2022/05/24 09:10:50;;;;;;;9.75;7.97;;;;;;;;;;5048257;28;20653;-55
2022/05/24 09:13:27;;;;;;;11.60;8.45;;;;;;;;;;5029899;28;20378;-50
2022/05/24 09:16:14;;;;;;;8.68;7.72;;;;;;;;;;5029192;28;20405;-62
2022/05/24 09:19:05;;;;;;;9.90;8.90;;;;;;;;;;5029952;28;20401;-62
2022/05/24 09:21:32;;;;;;;11.95;8.80;;;;;;;;;;5030153;28;20487;-62
2022/05/24 09:24:08;;;;;;;10.02;7.93;;;;;;;;;;5047545;28;20413;-62
2022/05/24 09:26:35;;;;;;;8.65;7.60;;;;;;;;;;5029412;28;20404;-62
2022/05/24 09:29:11;;;;;;;10.57;8.30;;;;;;;;;;5027963;28;20476;-62
2022/05/24 09:31:37;;;;;;;9.20;7.45;;;;;;;;;;5026162;28;20382;-62
2022/05/24 09:34:14;;;;;;;8.35;7.50;;;;;;;;;;5029147;28;20766;-61
2022/05/24 09:36:41;;;;;;;8.43;7.50;;;;;;;;;;5028644;28;20945;-61
2022/05/24 09:39:22;;;;;;;7.78;6.97;;;;;;;;;;5031758;28;20626;-61
2022/05/24 09:42:10;;;;;;;8.10;7.30;;;;;;;;;;5049664;28;20380;-62
2022/05/24 09:44:48;;;;;;;9.20;7.88;;;;;;;;;;5031064;28;20373;-62
2022/05/24 09:47:21;;;;;;;8.45;7.65;;;;;;;;;;5033506;28;20455;-63
2022/05/24 09:49:47;;;;;;;10.02;7.50;;;;;;;;;;5029462;28;20378;-63
2022/05/24 09:52:14;;;;;;;9.55;7.43;;;;;;;;;;5028863;28;20385;-62
2022/05/24 09:54:57;;;;;;;8.05;7.25;;;;;;;;;;5031284;28;20781;-62
2022/05/24 09:57:25;;;;;;;9.60;7.53;;;;;;;;;;5027739;28;20429;-62
2022/05/24 10:00:01;;;;;;;10.52;7.53;;;;;;;;;;5025511;28;20423;-62
2022/05/24 10:02:28;;;;;;;9.75;8.10;;;;;;;;;;5030048;28;20385;-62
2022/05/24 10:04:54;;;;;;;8.85;7.95;;;;;;;;;;5031156;28;20387;-62
2022/05/24 10:07:25;;;;;;;8.98;7.65;;;;;;;;;;5032170;28;20391;-61
2022/05/24 10:09:58;;;;;;;12.20;7.20;;;;;;;;;;5031479;28;20449;-61
2022/05/24 10:12:42;;;;;;;7.60;6.40;;;;;;;;;;5032327;28;20383;-62
2022/05/24 10:15:20;;;;;;;7.97;6.40;;;;;;;;;;5032109;28;20436;-63
2022/05/24 10:18:09;;;;;;;7.38;5.70;;;;;;;;;;5031321;28;20408;-63
2022/05/24 10:21:02;;;;;;;7.10;4.97;;;;;;;;;;5030755;28;20726;-62
2022/05/24 10:23:34;;;;;;;7.65;4.80;;;;;;;;;;5030545;28;20490;-63
2022/05/24 10:26:10;;;;;;;7.65;5.30;;;;;;;;;;5032610;28;20425;-62
2022/05/24 10:29:01;;;;;;;8.73;5.50;;;;;;;;;;5032464;28;20396;-62
2022/05/24 10:31:56;;;;;;;6.60;5.90;;;;;;;;;;5031986;28;20387;-62
2022/05/24 10:40:06;;;;;;;8.88;7.22;;;;;;;;;;5030687;28;20460;-62
2022/05/24 10:42:43;;;;;;;13.10;8.10;;;;;;;;;;5029428;28;20814;-62
2022/05/24 10:45:13;;;;;;;9.23;7.05;;;;;;;;;;5028257;28;20379;-62
2022/05/24 10:47:49;;;;;;;9.15;7.63;;;;;;;;;;5028165;28;20418;-62
2022/05/24 10:50:34;;;;;;;9.48;7.07;;;;;;;;;;5025145;28;20437;-62
2022/05/24 10:53:21;;;;;;;9.73;7.60;;;;;;;;;;5027091;28;20706;-63
2022/05/24 10:56:02;;;;;;;10.10;8.02;;;;;;;;;;5026602;28;20386;-63
2022/05/24 10:58:31;;;;;;;11.55;9.25;;;;;;;;;;5030253;28;20409;-63
2022/05/24 11:01:09;;;;;;;11.17;9.60;;;;;;;;;;5047821;28;20409;-63
2022/05/24 11:03:44;;;;;;;12.13;10.90;;;;;;;;;;5032468;28;20381;-63
2022/05/24 11:06:30;;;;;;;11.20;9.63;;;;;;;;;;5031996;28;20404;-63
2022/05/24 11:09:01;;;;;;;13.05;10.40;;;;;;;;;;5034701;28;20409;-63
2022/05/24 11:11:46;;;;;;;11.85;9.35;;;;;;;;;;5052044;28;20385;-63
2022/05/24 11:14:30;;;;;;;10.82;9.73;;;;;;;;;;5050417;28;20415;-63
2022/05/24 11:17:01;;;;;;;10.65;9.13;;;;;;;;;;5032741;28;20409;-63
2022/05/24 11:19:28;;;;;;;11.32;9.20;;;;;;;;;;5032534;28;20524;-63
2022/05/24 11:22:03;;;;;;;11.82;9.18;;;;;;;;;;5031381;28;20408;-64
2022/05/24 11:24:29;;;;;;;11.40;8.52;;;;;;;;;;5028098;28;20382;-63
2022/05/24 11:26:56;;;;;;;13.93;9.50;;;;;;;;;;5028701;28;20484;-63
2022/05/24 11:29:41;;;;;;;9.75;8.77;;;;;;;;;;5046788;28;20377;-63
2022/05/24 11:32:08;;;;;;;11.30;8.45;;;;;;;;;;5046312;28;20412;-63
2022/05/24 11:34:54;;;;;;;12.02;8.15;;;;;;;;;;5028289;28;20820;-63
2022/05/24 11:37:23;;;;;;;12.77;8.77;;;;;;;;;;5016467;28;20456;-63
2022/05/24 11:39:50;;;;;;;9.20;7.85;;;;;;;;;;5045531;28;20393;-63
2022/05/24 11:42:25;;;;;;;11.60;8.33;;;;;;;;;;5028229;28;20388;-63
2022/05/24 11:44:53;;;;;;;8.98;7.18;;;;;;;;;;5047329;28;20471;-56
2022/05/24 11:47:35;;;;;;;9.13;6.90;;;;;;;;;;5030238;28;20492;-57
2022/05/24 11:50:03;;;;;;;7.85;5.25;;;;;;;;;;5031034;28;20405;-58
2022/05/24 11:52:44;;;;;;;7.03;4.75;;;;;;;;;;5030948;28;20395;-58
2022/05/24 11:55:11;;;;;;;4.95;2.95;;;;;;;;;;5049967;28;20438;-56
2022/05/24 11:57:43;;;;;;;5.82;3.70;;;;;;;;;;5031861;28;20490;-57
2022/05/24 12:00:11;;;;;;;5.97;3.88;;;;;;;;;;5031773;28;20916;-58
2022/05/24 12:07:54;;;;;;;6.37;4.63;;;;;;;;;;5047551;28;20377;-56
2022/05/24 12:08:22;;;;;;;9.57;5.18;;;;;;;;;;5048223;28;20404;-58
2022/05/24 12:11:09;;;;;;;8.15;5.68;;;;;;;;;;5032261;28;20377;-58
2022/05/24 12:13:35;;;;;;;7.60;4.75;;;;;;;;;;5031886;28;20385;-56
2022/05/24 12:16:03;;;;;;;6.63;4.75;;;;;;;;;;5030116;28;20427;-58
2022/05/24 12:18:37;;;;;;;10.05;5.38;;;;;;;;;;5029065;28;20389;-58
2022/05/24 12:21:03;;;;;;;8.55;5.40;;;;;;;;;;5030406;28;20400;-56
2022/05/24 12:23:29;;;;;;;9.70;5.78;;;;;;;;;;5028969;28;20395;-54
2022/05/24 12:25:57;;;;;;;9.55;5.90;;;;;;;;;;5028376;28;20469;-58
2022/05/24 12:28:25;;;;;;;7.97;5.30;;;;;;;;;;5029523;28;20381;-58
2022/05/24 12:30:51;;;;;;;8.85;5.80;;;;;;;;;;5029834;28;20410;-54
2022/05/24 12:33:33;;;;;;;9.50;4.80;;;;;;;;;;5031992;28;20378;-55
2022/05/24 12:36:08;;;;;;;6.78;4.57;;;;;;;;;;5026049;28;20386;-58
2022/05/24 12:38:36;;;;;;;7.70;4.43;;;;;;;;;;5023134;28;20401;-58
2022/05/24 12:41:12;;;;;;;7.68;4.75;;;;;;;;;;5033773;28;20388;-57
2022/05/24 12:43:48;;;;;;;7.78;4.22;;;;;;;;;;5014924;28;20397;-56
2022/05/24 12:46:15;;;;;;;6.30;4.25;;;;;;;;;;5035896;28;20385;-55
2022/05/24 12:48:41;;;;;;;5.30;4.00;;;;;;;;;;5023084;28;20962;-55
2022/05/24 12:51:08;;;;;;;5.57;3.70;;;;;;;;;;5027276;28;20400;-55
2022/05/24 12:53:36;;;;;;;5.85;3.45;;;;;;;;;;5030150;28;20485;-58
2022/05/24 12:56:08;;;;;;;6.05;3.65;;;;;;;;;;5030849;28;20437;-56
2022/05/24 12:58:36;;;;;;;4.65;3.33;;;;;;;;;;5025804;28;20422;-58
2022/05/24 13:01:19;;;;;;;5.65;3.25;;;;;;;;;;5027868;28;20386;-58
2022/05/24 13:03:51;;;;;;;4.90;3.22;;;;;;;;;;5027310;28;20417;-57
2022/05/24 13:06:44;;;;;;;6.63;3.55;;;;;;;;;;5025165;28;20403;-57
2022/05/24 13:09:10;;;;;;;7.23;3.23;;;;;;;;;;5022088;28;20810;-55
2022/05/24 13:11:36;;;;;;;5.37;3.00;;;;;;;;;;5027779;28;20391;-56
2022/05/24 13:14:02;;;;;;;5.97;2.90;;;;;;;;;;5025430;28;20394;-57
2022/05/24 13:16:28;;;;;;;3.75;3.10;;;;;;;;;;5027999;28;20829;-57
2022/05/24 13:18:55;;;;;;;5.53;3.45;;;;;;;;;;5029194;28;20383;-55
2022/05/24 13:21:25;;;;;;;5.10;3.25;;;;;;;;;;5022605;28;20590;-56
2022/05/24 13:24:06;;;;;;;5.37;3.00;;;;;;;;;;5018467;28;20411;-53
2022/05/24 13:26:32;;;;;;;5.85;3.22;;;;;;;;;;5018540;28;20391;-55
2022/05/24 13:29:18;;;;;;;6.85;3.30;;;;;;;;;;5019064;28;20383;-54
2022/05/24 13:34:31;;;;;;;5.78;2.78;;;;;;;;;;5018331;28;20386;-56
2022/05/24 13:37:01;;;;;;;4.73;3.00;;;;;;;;;;5019099;28;20561;-56
2022/05/24 13:39:29;;;;;;;4.97;3.13;;;;;;;;;;5023165;28;20391;-53
2022/05/24 13:42:00;;;;;;;3.75;2.75;;;;;;;;;;5021338;28;20674;-55
2022/05/24 13:44:26;;;;;;;4.30;2.80;;;;;;;;;;5025152;28;20379;-55
2022/05/24 13:47:04;;;;;;;5.55;3.50;;;;;;;;;;5022397;28;20760;-57
2022/05/24 13:49:33;;;;;;;4.22;3.33;;;;;;;;;;5023974;28;20474;-56
2022/05/24 13:52:12;;;;;;;4.90;3.35;;;;;;;;;;5022090;28;20714;-56
2022/05/24 13:54:38;;;;;;;5.43;2.95;;;;;;;;;;5022823;28;20675;-56
2022/05/24 13:57:05;;;;;;;6.25;4.00;;;;;;;;;;5020776;28;20531;-54
2022/05/24 13:59:32;;;;;;;4.53;3.50;;;;;;;;;;5019119;28;20414;-57
2022/05/24 14:02:08;;;;;;;5.55;3.85;;;;;;;;;;5021834;28;20378;-54
2022/05/24 14:04:37;;;;;;;7.53;3.70;;;;;;;;;;5021841;28;20382;-54
2022/05/24 14:07:06;;;;;;;6.00;3.53;;;;;;;;;;5020109;28;20490;-55
2022/05/24 14:09:33;;;;;;;4.30;2.90;;;;;;;;;;5021351;28;20447;-57
2022/05/24 14:12:04;;;;;;;3.92;2.97;;;;;;;;;;5029609;28;20412;-56
2022/05/24 14:14:31;;;;;;;4.72;3.08;;;;;;;;;;5028908;28;20394;-56
2022/05/24 14:16:57;;;;;;;5.53;3.50;;;;;;;;;;5030485;28;20496;-55
2022/05/24 14:19:24;;;;;;;11.43;3.00;;;;;;;;;;5029209;28;20395;-56
2022/05/24 14:21:54;;;;;;;6.00;2.92;;;;;;;;;;5029705;28;20435;-57
2022/05/24 14:24:21;;;;;;;4.88;2.42;;;;;;;;;;5030944;28;20391;-54
2022/05/24 14:26:48;;;;;;;4.03;2.90;;;;;;;;;;5032554;28;20440;-53
2022/05/24 14:29:15;;;;;;;4.30;2.60;;;;;;;;;;5032135;28;20395;-57
2022/05/24 14:31:41;;;;;;;2.97;2.67;;;;;;;;;;5032094;28;20468;-57
2022/05/24 14:34:10;;;;;;;3.70;2.70;;;;;;;;;;5031103;28;20391;-57
2022/05/24 14:36:36;;;;;;;4.20;2.78;;;;;;;;;;5032186;28;20968;-52
2022/05/24 14:39:02;;;;;;;4.60;2.78;;;;;;;;;;5030362;28;20391;-57
2022/05/24 14:41:28;;;;;;;5.72;3.05;;;;;;;;;;5027191;28;20451;-56
2022/05/24 14:44:00;;;;;;;3.97;2.80;;;;;;;;;;5027133;28;20395;-53
2022/05/24 14:46:26;;;;;;;3.67;3.03;;;;;;;;;;5030133;28;20387;-57
2022/05/24 14:48:53;;;;;;;5.13;2.80;;;;;;;;;;5029574;28;20431;-56
2022/05/24 14:51:22;;;;;;;3.20;2.72;;;;;;;;;;5029667;28;20399;-56
2022/05/24 14:53:48;;;;;;;4.03;2.65;;;;;;;;;;5030098;28;20497;-56
2022/05/24 14:56:14;;;;;;;4.75;3.65;;;;;;;;;;5031948;28;20521;-55
2022/05/24 14:58:40;;;;;;;4.30;3.78;;;;;;;;;;5031797;28;20415;-56
2022/05/24 15:01:06;;;;;;;7.30;4.10;;;;;;;;;;5033090;28;20383;-55
2022/05/24 15:03:32;;;;;;;7.00;5.07;;;;;;;;;;5032504;28;20383;-57
2022/05/24 15:05:58;;;;;;;6.60;5.90;;;;;;;;;;5031197;28;20918;-56
2022/05/24 15:16:41;;;;;;;8.13;5.70;;;;;;;;;;5032258;28;20699;-57
2022/05/24 15:19:07;;;;;;;6.00;4.88;;;;;;;;;;5030366;28;20379;-57
2022/05/24 15:21:35;;;;;;;4.35;3.90;;;;;;;;;;5031273;28;20426;-56
2022/05/24 15:24:04;;;;;;;5.53;4.20;;;;;;;;;;5031544;28;20391;-55
2022/05/24 15:26:32;;;;;;;5.72;4.20;;;;;;;;;;5028526;28;20387;-57
2022/05/24 15:28:58;;;;;;;5.25;4.18;;;;;;;;;;5029595;28;20633;-58
2022/05/24 15:31:25;;;;;;;5.85;4.97;;;;;;;;;;5031585;28;20386;-56
2022/05/24 15:33:56;;;;;;;5.85;5.15;;;;;;;;;;5029816;28;20395;-56
2022/05/24 15:36:22;;;;;;;5.68;4.43;;;;;;;;;;5030183;28;20411;-57
2022/05/24 15:38:48;;;;;;;7.18;4.25;;;;;;;;;;5031736;28;20474;-56
2022/05/24 15:41:14;;;;;;;4.07;3.67;;;;;;;;;;5031696;28;20486;-53
2022/05/24 15:43:43;;;;;;;4.65;3.80;;;;;;;;;;5024210;28;20383;-57
2022/05/24 15:46:09;;;;;;;3.83;3.35;;;;;;;;;;5025607;28;20752;-54
2022/05/24 15:48:35;;;;;;;3.70;3.40;;;;;;;;;;5026951;28;20695;-57